Airfield :







YOU CAN JOIN US ON...

 
LOGIN :

Register | Disclaimer

   EN    FR    IT 

 









Legend :    VFR   Marginal VFR   IFR   Intensive IFR   Very Intensive IFR
Visi :
Ceiling :
>= 8 km
>= 3000ft
5 to 8 km
1000 to 3000 ft
1500m to 5 km
500 to 1000 ft
800 to 1500m
200 to 500 ft
< 800m
< 200 ft
Symbols :   Thunderstorms  Fog  Heavy snow  Heavy precipitations  Wind > 20 kt






- Airport Elevation : 110 ft
- IATA code : YFB


CYFB - Iqaluit

CURRENT METAR :
  • 130900Z 00000KT 30SM BKN052 BKN100 07/01 A3002 RMK SC5AC2 SLP171

EXPIRED METARs :
  • 130839Z 00000KT 30SM -RA BKN052 BKN100 07/02 A3002 RMK SC5AC2 SLP171
  • 130800Z 14002KT 30SM BKN054 BKN110 06/01 A3002 RMK SC5AC2 SLP171
  • 130700Z 00000KT 30SM SCT054 BKN091 07/00 A3002 RMK SC3AC4 SLP170

TAF TAF CYFB
Valid from the 13 at 06:00 until the 14 at 06:00 UTC


130538Z 1306/1406 VRB03KT P6SM SCT080 BKN160
TEMPO 1306/1310 SCT040 BKN080
FM131000 VRB03KT P6SM SCT040 BKN080
TEMPO 1310/1317 BKN040
BECMG 1315/1317 33010G20KT
FM131700 33010G20KT P6SM FEW080
BECMG 1317/1319 33015G25KT RMK NXT FCST BY 131200Z
CZUL FIR / North America



MET'MAP, your aeronautical weather chart ! - Copyright ORBIFLY December 2007 - Disclaimer

ORBIFLY MET'MAP TEAM :

Programming & Development : Alexandra Zaïnal
Concept & original design : Baudouin d'Aumeries
Assistance for programming : Marc-Olivier Méhu
Technical & hardware support : Manuel Goepfert

Contact : metmap@orbifly.com




SOURCES & CREDITS :

   NOAA